createdAt,value
2022-09-06T00:01:18.789Z,20.50
2022-09-06T00:03:47.453Z,20.50
2022-09-06T00:06:17.255Z,20.50
2022-09-06T00:08:46.868Z,20.50
2022-09-06T00:11:15.573Z,20.40
2022-09-06T00:13:45.257Z,20.40
2022-09-06T00:16:15.532Z,20.40
2022-09-06T00:18:44.614Z,20.40
2022-09-06T00:21:18.906Z,20.40
2022-09-06T00:23:47.024Z,20.40
2022-09-06T00:26:15.962Z,20.40
2022-09-06T00:28:46.076Z,20.30
2022-09-06T00:31:16.205Z,20.30
2022-09-06T00:33:44.868Z,20.20
2022-09-06T00:36:14.508Z,20.10
2022-09-06T00:38:43.362Z,20.20
2022-09-06T00:41:13.627Z,20.10
2022-09-06T00:43:42.619Z,20.10
2022-09-06T00:46:18.735Z,20.10
2022-09-06T00:48:48.471Z,20.00
2022-09-06T00:51:20.051Z,20.00
2022-09-06T00:53:48.379Z,19.90
2022-09-06T00:56:16.550Z,19.90
2022-09-06T00:58:44.836Z,19.80
2022-09-06T01:01:17.164Z,19.90
2022-09-06T01:03:45.290Z,19.80
2022-09-06T01:06:24.975Z,19.80
2022-09-06T01:09:07.564Z,19.80
2022-09-06T01:11:55.074Z,19.70
2022-09-06T01:14:53.599Z,19.70
2022-09-06T01:17:34.550Z,19.60
2022-09-06T01:20:41.386Z,19.60
2022-09-06T01:23:45.851Z,19.60
2022-09-06T01:26:39.781Z,19.50
2022-09-06T01:29:19.449Z,19.50
2022-09-06T01:31:53.264Z,19.40
2022-09-06T01:34:28.206Z,19.40
2022-09-06T01:37:10.032Z,19.40
2022-09-06T01:39:40.635Z,19.40
2022-09-06T01:42:12.584Z,19.30
2022-09-06T01:44:47.058Z,19.30
2022-09-06T01:47:29.480Z,19.20
2022-09-06T01:50:17.679Z,19.10
2022-09-06T01:52:57.319Z,19.20
2022-09-06T01:55:33.744Z,19.10
2022-09-06T01:58:17.980Z,19.10
2022-09-06T02:00:54.292Z,19.10
2022-09-06T02:03:29.113Z,19.00
2022-09-06T02:06:01.353Z,19.00
2022-09-06T02:08:34.942Z,19.10
2022-09-06T02:11:05.647Z,19.00
2022-09-06T02:13:38.187Z,19.00
2022-09-06T02:16:10.229Z,19.00
2022-09-06T02:18:43.734Z,19.00
2022-09-06T02:21:14.883Z,18.90
2022-09-06T02:23:45.220Z,18.90
2022-09-06T02:26:18.763Z,18.90
2022-09-06T02:28:47.088Z,18.90
2022-09-06T02:31:22.739Z,18.80
2022-09-06T02:33:52.247Z,18.80
2022-09-06T02:36:21.029Z,18.90
2022-09-06T02:38:49.313Z,18.80
2022-09-06T02:41:22.556Z,18.80
2022-09-06T02:43:51.447Z,18.80
2022-09-06T02:46:21.000Z,18.80
2022-09-06T02:48:49.180Z,18.80
2022-09-06T02:51:17.955Z,18.80
2022-09-06T02:53:46.002Z,18.80
2022-09-06T02:56:14.157Z,18.80
2022-09-06T02:58:42.266Z,18.80
2022-09-06T03:01:10.402Z,18.80
2022-09-06T03:03:39.883Z,18.80
2022-09-06T03:06:08.398Z,18.90
2022-09-06T03:08:36.561Z,18.90
2022-09-06T03:11:07.389Z,18.90
2022-09-06T03:13:38.472Z,19.00
2022-09-06T03:16:06.568Z,18.90
2022-09-06T03:18:34.855Z,18.90
2022-09-06T03:21:04.987Z,18.90
2022-09-06T03:23:33.622Z,18.90
2022-09-06T03:26:01.635Z,19.00
2022-09-06T03:28:30.162Z,19.00
2022-09-06T03:30:58.285Z,19.00
2022-09-06T03:33:26.448Z,19.00
2022-09-06T03:35:56.394Z,19.00
2022-09-06T03:38:26.569Z,19.00
2022-09-06T03:40:55.427Z,19.00
2022-09-06T03:43:24.695Z,19.00
2022-09-06T03:45:54.462Z,18.90
2022-09-06T03:48:24.331Z,18.90
2022-09-06T03:50:55.001Z,19.00
2022-09-06T03:53:25.445Z,18.90
2022-09-06T03:55:55.700Z,18.90
2022-09-06T03:58:25.163Z,19.00
2022-09-06T04:01:02.213Z,19.00
2022-09-06T04:03:30.343Z,19.00
2022-09-06T04:05:58.374Z,19.00
2022-09-06T04:08:30.495Z,19.00
2022-09-06T04:10:59.461Z,19.00
2022-09-06T04:13:30.639Z,19.00
2022-09-06T04:15:59.209Z,19.00
2022-09-06T04:18:27.801Z,18.90
2022-09-06T04:20:57.155Z,18.90
2022-09-06T04:23:27.633Z,18.90
2022-09-06T04:25:57.871Z,18.90
2022-09-06T04:28:27.134Z,18.90
2022-09-06T04:30:58.138Z,18.90
2022-09-06T04:33:31.007Z,18.90
2022-09-06T04:36:00.740Z,18.90
2022-09-06T04:38:31.555Z,18.90
2022-09-06T04:40:59.595Z,18.80
2022-09-06T04:43:27.605Z,18.80
2022-09-06T04:45:55.840Z,18.80
2022-09-06T04:48:23.959Z,18.80
2022-09-06T04:50:52.124Z,18.80
2022-09-06T04:53:20.387Z,18.80
2022-09-06T04:55:52.880Z,18.70
2022-09-06T04:58:21.075Z,18.70
2022-09-06T05:00:49.217Z,18.70
2022-09-06T05:03:17.307Z,18.70
2022-09-06T05:05:45.831Z,18.70
2022-09-06T05:08:13.887Z,18.70
2022-09-06T05:10:41.954Z,18.70
2022-09-06T05:13:11.464Z,18.70
2022-09-06T05:15:39.511Z,18.70
2022-09-06T05:18:07.677Z,18.70
2022-09-06T05:20:37.042Z,18.70
2022-09-06T05:23:05.030Z,18.70
2022-09-06T05:25:33.013Z,18.70
2022-09-06T05:28:01.654Z,18.70
2022-09-06T05:30:37.836Z,18.70
2022-09-06T05:33:06.570Z,18.70
2022-09-06T05:35:34.692Z,18.70
2022-09-06T05:38:02.807Z,18.70
2022-09-06T05:40:31.100Z,18.70
2022-09-06T05:43:02.623Z,18.70
2022-09-06T05:45:30.743Z,18.60
2022-09-06T05:48:03.667Z,18.60
2022-09-06T05:50:31.700Z,18.50
2022-09-06T05:52:59.800Z,18.60
2022-09-06T05:55:30.175Z,18.60
2022-09-06T05:57:58.357Z,18.70
2022-09-06T06:00:26.413Z,18.70
2022-09-06T06:02:54.959Z,18.70
2022-09-06T06:05:24.330Z,18.70
2022-09-06T06:07:52.354Z,18.70
2022-09-06T06:10:20.999Z,18.70
2022-09-06T06:12:49.615Z,18.70
2022-09-06T06:15:17.732Z,18.70
2022-09-06T06:17:45.863Z,18.70
2022-09-06T06:20:14.155Z,18.70
2022-09-06T06:22:43.638Z,18.70
2022-09-06T06:25:12.658Z,18.60
2022-09-06T06:27:40.825Z,18.60
2022-09-06T06:30:09.876Z,18.70
2022-09-06T06:32:37.983Z,18.70
2022-09-06T06:35:09.792Z,18.70
2022-09-06T06:37:38.607Z,18.60
2022-09-06T06:40:10.733Z,18.60
2022-09-06T06:42:42.299Z,18.60
2022-09-06T06:45:11.205Z,18.50
2022-09-06T06:47:39.259Z,18.50
2022-09-06T06:50:10.980Z,18.50
2022-09-06T06:52:39.485Z,18.40
2022-09-06T06:55:09.690Z,18.40
2022-09-06T06:57:37.947Z,18.50
2022-09-06T07:00:07.405Z,18.50
2022-09-06T07:02:35.644Z,18.50
2022-09-06T07:07:51.926Z,18.50
2022-09-06T07:10:36.789Z,18.50
2022-09-06T07:13:05.749Z,18.50
2022-09-06T07:15:33.910Z,18.50
2022-09-06T07:18:02.439Z,18.50
2022-09-06T07:20:30.986Z,18.50
2022-09-06T07:25:55.475Z,18.50
2022-09-06T07:28:23.846Z,18.50
2022-09-06T07:30:54.364Z,18.50
2022-09-06T07:33:22.459Z,18.50
2022-09-06T07:36:01.851Z,18.60
2022-09-06T07:38:33.847Z,18.50
2022-09-06T07:41:04.937Z,18.50
2022-09-06T07:43:33.581Z,18.60
2022-09-06T07:46:02.808Z,18.60
2022-09-06T07:48:32.581Z,18.60
2022-09-06T07:51:09.264Z,18.60
2022-09-06T07:53:38.988Z,18.70
2022-09-06T07:56:10.920Z,18.70
2022-09-06T08:01:26.587Z,18.80
2022-09-06T08:03:57.539Z,18.80
2022-09-06T08:06:26.340Z,18.80
2022-09-06T08:11:25.810Z,18.80
2022-09-06T08:13:56.175Z,18.90
2022-09-06T08:16:25.476Z,18.90
2022-09-06T08:18:54.507Z,19.00
2022-09-06T08:21:24.734Z,19.00
2022-09-06T08:23:55.007Z,19.00
2022-09-06T08:26:26.708Z,19.00
2022-09-06T08:28:58.923Z,19.10
2022-09-06T08:31:29.282Z,19.10
2022-09-06T08:33:58.016Z,19.20
2022-09-06T08:36:30.893Z,19.20
2022-09-06T08:38:59.205Z,19.30
2022-09-06T08:41:34.001Z,19.30
2022-09-06T08:46:58.646Z,19.40
2022-09-06T08:49:33.470Z,19.50
2022-09-06T08:52:32.629Z,19.50
2022-09-06T08:55:14.899Z,19.40
2022-09-06T08:57:59.934Z,19.30
2022-09-06T09:00:30.498Z,19.40
2022-09-06T09:03:07.791Z,19.50
2022-09-06T09:05:40.089Z,19.50
2022-09-06T09:10:44.314Z,19.40
2022-09-06T09:13:25.133Z,19.40
2022-09-06T09:15:54.037Z,19.40
2022-09-06T09:18:26.543Z,19.40
2022-09-06T09:20:55.072Z,19.40
2022-09-06T09:23:23.314Z,19.50
2022-09-06T09:25:53.742Z,19.60
2022-09-06T09:28:26.059Z,19.70
2022-09-06T09:30:56.649Z,19.70
2022-09-06T09:33:33.460Z,19.70
2022-09-06T09:36:03.899Z,19.70
2022-09-06T09:38:37.016Z,19.70
2022-09-06T09:41:07.916Z,19.70
2022-09-06T09:43:42.978Z,19.70
2022-09-06T09:46:14.934Z,19.70
2022-09-06T09:48:49.922Z,19.70
2022-09-06T09:51:27.053Z,19.70
2022-09-06T09:53:57.877Z,19.70
2022-09-06T09:56:35.062Z,19.80
2022-09-06T09:59:16.912Z,19.80
2022-09-06T10:01:45.215Z,19.80
2022-09-06T10:07:16.224Z,19.80
2022-09-06T10:09:47.793Z,19.80
2022-09-06T10:12:19.964Z,19.70
2022-09-06T10:14:50.935Z,19.70
2022-09-06T10:17:30.389Z,19.70
2022-09-06T10:20:22.089Z,19.70
2022-09-06T10:22:57.538Z,19.60
2022-09-06T10:25:48.983Z,19.60
2022-09-06T10:28:32.376Z,19.50
2022-09-06T10:34:13.255Z,19.50
2022-09-06T10:36:48.958Z,19.50
2022-09-06T10:42:15.677Z,19.50
2022-09-06T10:45:01.540Z,19.50
2022-09-06T10:47:39.658Z,19.50
2022-09-06T10:50:09.751Z,19.60
2022-09-06T10:52:43.090Z,19.60
2022-09-06T10:55:15.267Z,19.70
2022-09-06T11:00:38.944Z,19.80
2022-09-06T11:06:09.266Z,20.10
2022-09-06T11:11:22.637Z,20.30
2022-09-06T11:13:51.556Z,20.40
2022-09-06T11:16:27.493Z,20.50
2022-09-06T11:19:00.999Z,20.60
2022-09-06T11:21:48.495Z,20.70
2022-09-06T11:24:35.784Z,20.90
2022-09-06T11:29:45.253Z,21.10
2022-09-06T11:32:38.620Z,21.30
2022-09-06T11:35:11.234Z,21.20
2022-09-06T11:37:44.847Z,21.30
2022-09-06T11:43:18.777Z,21.40
2022-09-06T11:48:38.059Z,21.40
2022-09-06T11:51:12.759Z,21.50
2022-09-06T11:56:41.066Z,21.70
2022-09-06T11:59:24.446Z,21.80
2022-09-06T12:02:02.617Z,22.00
2022-09-06T12:05:13.795Z,22.30
2022-09-06T12:08:15.410Z,22.40
2022-09-06T12:10:51.312Z,22.40
2022-09-06T12:13:42.448Z,22.60
2022-09-06T12:16:13.357Z,22.70
2022-09-06T12:19:02.169Z,22.70
2022-09-06T12:21:39.172Z,22.70
2022-09-06T12:24:10.711Z,22.90
2022-09-06T12:26:55.303Z,23.10
2022-09-06T12:29:27.643Z,23.10
2022-09-06T12:31:57.733Z,23.10
2022-09-06T12:34:34.253Z,23.00
2022-09-06T12:37:05.614Z,23.00
2022-09-06T12:39:36.617Z,23.10
2022-09-06T12:42:08.270Z,23.20
2022-09-06T12:44:45.311Z,23.30
2022-09-06T12:47:22.989Z,23.20
2022-09-06T12:50:12.065Z,23.10
2022-09-06T12:52:50.312Z,23.10
2022-09-06T12:58:10.636Z,23.30
2022-09-06T13:00:44.921Z,23.30
2022-09-06T13:03:25.811Z,23.40
2022-09-06T13:05:56.494Z,23.50
2022-09-06T13:08:30.239Z,23.80
2022-09-06T13:11:02.986Z,24.00
2022-09-06T13:13:31.925Z,24.10
2022-09-06T13:16:12.886Z,24.00
2022-09-06T13:18:46.968Z,23.80
2022-09-06T13:21:26.663Z,23.80
2022-09-06T13:23:59.043Z,24.00
2022-09-06T13:26:35.567Z,24.10
2022-09-06T13:32:17.496Z,24.20
2022-09-06T13:34:57.135Z,24.30
2022-09-06T13:37:26.587Z,24.40
2022-09-06T13:40:05.613Z,24.40
2022-09-06T13:42:36.836Z,24.40
2022-09-06T13:45:21.135Z,24.50
2022-09-06T13:48:03.422Z,24.50
2022-09-06T13:50:42.179Z,24.60
2022-09-06T13:53:11.557Z,24.70
2022-09-06T13:55:40.123Z,24.70
2022-09-06T13:58:09.378Z,24.80
2022-09-06T14:00:46.999Z,24.70
2022-09-06T14:03:24.157Z,24.90
2022-09-06T14:05:59.007Z,24.90
2022-09-06T14:08:38.793Z,25.00
2022-09-06T14:11:13.985Z,25.10
2022-09-06T14:13:44.543Z,25.10
2022-09-06T14:16:14.174Z,25.10
2022-09-06T14:18:46.452Z,25.10
2022-09-06T14:24:25.640Z,25.30
2022-09-06T14:26:56.123Z,25.40
2022-09-06T14:29:25.141Z,25.50
2022-09-06T14:31:56.911Z,25.40
2022-09-06T14:34:29.802Z,25.30
2022-09-06T14:37:18.045Z,25.30
2022-09-06T14:39:49.498Z,25.30
2022-09-06T14:42:18.334Z,25.30
2022-09-06T14:44:46.763Z,25.40
2022-09-06T14:47:15.228Z,25.50
2022-09-06T14:49:45.288Z,25.50
2022-09-06T14:52:13.927Z,25.50
2022-09-06T14:54:42.913Z,25.40
2022-09-06T14:57:12.034Z,25.40
2022-09-06T14:59:54.066Z,25.40
2022-09-06T15:05:11.006Z,25.50
2022-09-06T15:07:42.530Z,25.50
2022-09-06T15:10:12.127Z,25.60
2022-09-06T15:12:40.264Z,25.60
2022-09-06T15:15:09.156Z,25.60
2022-09-06T15:17:38.575Z,25.60
2022-09-06T15:20:08.594Z,25.60
2022-09-06T15:22:38.924Z,25.60
2022-09-06T15:25:08.146Z,25.60
2022-09-06T15:27:37.135Z,25.60
2022-09-06T15:30:06.138Z,25.50
2022-09-06T15:32:36.745Z,25.30
2022-09-06T15:35:06.602Z,25.30
2022-09-06T15:37:34.723Z,25.20
2022-09-06T15:40:17.814Z,25.20
2022-09-06T15:42:46.586Z,25.10
2022-09-06T15:45:14.814Z,25.10
2022-09-06T15:47:43.302Z,25.10
2022-09-06T15:50:11.754Z,24.90
2022-09-06T15:52:50.725Z,24.90
2022-09-06T15:55:41.106Z,24.90
2022-09-06T15:58:09.816Z,24.90
2022-09-06T16:00:41.918Z,24.90
2022-09-06T16:08:40.506Z,24.80
2022-09-06T16:11:11.963Z,24.70
2022-09-06T16:13:44.702Z,24.70
2022-09-06T16:16:34.935Z,24.60
2022-09-06T16:19:12.303Z,24.60
2022-09-06T16:21:45.057Z,24.50
2022-09-06T16:24:15.538Z,24.60
2022-09-06T16:26:48.395Z,24.50
2022-09-06T16:29:41.734Z,24.40
2022-09-06T16:32:14.064Z,24.30
2022-09-06T16:34:45.903Z,24.40
2022-09-06T16:37:14.251Z,24.30
2022-09-06T16:42:20.023Z,24.30
2022-09-06T16:44:48.708Z,24.20
2022-09-06T16:47:17.021Z,24.20
2022-09-06T16:49:48.834Z,24.10
2022-09-06T16:52:17.042Z,24.00
2022-09-06T16:54:47.497Z,23.90
2022-09-06T16:57:21.726Z,23.90
2022-09-06T16:59:50.297Z,23.80
2022-09-06T17:02:22.379Z,23.80
2022-09-06T17:04:50.925Z,23.70
2022-09-06T17:07:19.179Z,23.70
2022-09-06T17:09:47.885Z,23.60
2022-09-06T17:12:21.341Z,23.60
2022-09-06T17:14:53.194Z,23.50
2022-09-06T17:17:20.934Z,23.50
2022-09-06T17:19:53.449Z,23.40
2022-09-06T17:22:21.888Z,23.30
2022-09-06T17:24:52.681Z,23.20
2022-09-06T17:27:25.353Z,23.10
2022-09-06T17:29:54.164Z,23.00
2022-09-06T17:37:48.945Z,22.70
2022-09-06T17:43:29.699Z,22.70
2022-09-06T17:49:23.126Z,22.60
2022-09-06T17:51:58.528Z,22.50
2022-09-06T17:57:17.737Z,22.40
2022-09-06T17:59:46.279Z,22.30
2022-09-06T18:02:14.363Z,22.30
2022-09-06T18:04:44.542Z,22.20
2022-09-06T18:07:12.609Z,22.20
2022-09-06T18:09:41.550Z,22.10
2022-09-06T18:12:09.997Z,22.00
2022-09-06T18:14:38.176Z,21.90
2022-09-06T18:17:08.379Z,21.90
2022-09-06T18:19:38.879Z,21.80
2022-09-06T18:22:08.353Z,21.70
2022-09-06T18:24:36.612Z,21.60
2022-09-06T18:27:04.878Z,21.60
2022-09-06T18:29:35.410Z,21.50
2022-09-06T18:32:04.333Z,21.40
2022-09-06T18:34:35.781Z,21.40
2022-09-06T18:37:05.017Z,21.30
2022-09-06T18:39:37.653Z,21.30
2022-09-06T18:42:11.010Z,21.20
2022-09-06T18:44:39.509Z,21.20
2022-09-06T18:47:09.637Z,21.10
2022-09-06T18:49:41.820Z,21.10
2022-09-06T18:52:12.104Z,21.00
2022-09-06T18:54:43.588Z,21.00
2022-09-06T18:57:11.796Z,20.80
2022-09-06T18:59:40.076Z,20.80
2022-09-06T19:02:26.331Z,20.80
2022-09-06T19:04:59.238Z,20.70
2022-09-06T19:07:29.702Z,20.70
2022-09-06T19:09:59.443Z,20.70
2022-09-06T19:12:27.749Z,20.60
2022-09-06T19:14:55.818Z,20.50
2022-09-06T19:17:24.072Z,20.50
2022-09-06T19:22:52.311Z,20.30
2022-09-06T19:25:26.647Z,20.30
2022-09-06T19:27:59.567Z,20.30
2022-09-06T19:30:28.166Z,20.20
2022-09-06T19:32:56.335Z,20.10
2022-09-06T19:35:47.138Z,20.20
2022-09-06T19:38:27.876Z,20.10
2022-09-06T19:41:04.721Z,20.00
2022-09-06T19:43:33.296Z,20.00
2022-09-06T19:46:04.723Z,20.00
2022-09-06T19:48:34.624Z,20.00
2022-09-06T19:51:05.503Z,20.00
2022-09-06T19:53:33.905Z,20.00
2022-09-06T19:58:45.463Z,19.90
2022-09-06T20:01:18.656Z,19.80
2022-09-06T20:03:50.127Z,19.80
2022-09-06T20:06:18.237Z,19.80
2022-09-06T20:08:49.939Z,19.70
2022-09-06T20:11:19.205Z,19.70
2022-09-06T20:13:49.772Z,19.60
2022-09-06T20:16:20.779Z,19.60
2022-09-06T20:18:53.066Z,19.50
2022-09-06T20:21:21.644Z,19.50
2022-09-06T20:23:54.328Z,19.50
2022-09-06T20:26:23.756Z,19.50
2022-09-06T20:28:58.272Z,19.50
2022-09-06T20:31:27.820Z,19.50
2022-09-06T20:33:56.106Z,19.50
2022-09-06T20:36:25.543Z,19.50
2022-09-06T20:38:54.111Z,19.50
2022-09-06T20:41:26.911Z,19.50
2022-09-06T20:43:58.630Z,19.50
2022-09-06T20:46:29.145Z,19.50
2022-09-06T20:48:59.830Z,19.40
2022-09-06T20:51:28.588Z,19.40
2022-09-06T20:53:58.615Z,19.40
2022-09-06T20:56:28.396Z,19.40
2022-09-06T20:58:59.714Z,19.40
2022-09-06T21:01:29.392Z,19.30
2022-09-06T21:04:00.216Z,19.30
2022-09-06T21:06:30.087Z,19.20
2022-09-06T21:08:58.819Z,19.20
2022-09-06T21:11:28.273Z,19.20
2022-09-06T21:14:00.833Z,19.20
2022-09-06T21:16:31.177Z,19.20
2022-09-06T21:19:00.459Z,19.20
2022-09-06T21:21:30.825Z,19.10
2022-09-06T21:24:02.154Z,19.10
2022-09-06T21:26:31.232Z,19.00
2022-09-06T21:29:00.892Z,19.00
2022-09-06T21:31:33.692Z,18.90
2022-09-06T21:34:05.025Z,18.90
2022-09-06T21:36:35.874Z,18.80
2022-09-06T21:39:06.307Z,18.80
2022-09-06T21:41:35.189Z,18.70
2022-09-06T21:44:06.308Z,18.70
2022-09-06T21:46:39.047Z,18.70
2022-09-06T21:49:09.063Z,18.70
2022-09-06T21:51:37.605Z,18.60
2022-09-06T21:54:06.733Z,18.60
2022-09-06T21:56:38.085Z,18.60
2022-09-06T21:59:08.478Z,18.50
2022-09-06T22:01:38.518Z,18.50
2022-09-06T22:04:07.056Z,18.50
2022-09-06T22:06:38.982Z,18.50
2022-09-06T22:09:10.722Z,18.40
2022-09-06T22:11:40.570Z,18.30
2022-09-06T22:14:11.733Z,18.30
2022-09-06T22:16:41.312Z,18.30
2022-09-06T22:19:10.068Z,18.20
2022-09-06T22:21:41.455Z,18.20
2022-09-06T22:24:11.070Z,18.20
2022-09-06T22:26:40.912Z,18.20
2022-09-06T22:29:14.839Z,18.20
2022-09-06T22:31:43.325Z,18.10
2022-09-06T22:34:13.788Z,18.10
2022-09-06T22:39:26.533Z,18.00
2022-09-06T22:41:54.664Z,18.10
2022-09-06T22:44:27.347Z,18.00
2022-09-06T22:46:55.696Z,18.00
2022-09-06T22:49:24.203Z,18.00
2022-09-06T22:51:53.603Z,17.90
2022-09-06T22:54:21.706Z,17.90
2022-09-06T22:56:50.336Z,17.90
2022-09-06T22:59:18.515Z,17.90
2022-09-06T23:01:48.036Z,17.90
2022-09-06T23:04:18.257Z,17.90
2022-09-06T23:06:46.380Z,17.90
2022-09-06T23:09:16.191Z,17.80
2022-09-06T23:11:44.535Z,17.70
2022-09-06T23:14:12.735Z,17.70
2022-09-06T23:16:41.909Z,17.70
2022-09-06T23:19:12.106Z,17.60
2022-09-06T23:21:40.464Z,17.50
2022-09-06T23:24:09.668Z,17.50
2022-09-06T23:26:38.049Z,17.50
2022-09-06T23:29:06.117Z,17.60
2022-09-06T23:31:34.385Z,17.60
2022-09-06T23:34:03.394Z,17.60
2022-09-06T23:36:33.406Z,17.50
2022-09-06T23:39:02.776Z,17.50
2022-09-06T23:41:31.209Z,17.50
2022-09-06T23:43:59.287Z,17.40
2022-09-06T23:46:28.465Z,17.40
2022-09-06T23:48:56.501Z,17.50
2022-09-06T23:51:24.932Z,17.50
2022-09-06T23:53:54.473Z,17.60
2022-09-06T23:56:22.560Z,17.60
2022-09-06T23:58:50.618Z,17.50
